createdAt,value
2017-06-22T13:45:24.583Z,81.3
2017-06-22T13:46:27.018Z,81.0
2017-06-22T13:47:29.670Z,81.4
2017-06-22T13:48:32.262Z,81.0
2017-06-22T13:49:34.669Z,81.4
2017-06-22T13:50:37.271Z,81.2
2017-06-22T13:51:39.700Z,81.2
2017-06-22T13:52:42.205Z,81.3
2017-06-22T13:53:44.720Z,81.6
2017-06-22T13:54:47.237Z,81.7
2017-06-22T13:55:49.918Z,81.8
2017-06-22T13:56:52.419Z,82.3
2017-06-22T13:57:54.829Z,82.5
2017-06-22T13:58:57.338Z,82.6
2017-06-22T13:59:59.750Z,82.3
2017-06-22T14:00:39.464Z,82.1
2017-06-22T14:01:44.721Z,82.2
2017-06-22T14:02:47.172Z,82.1
2017-06-22T14:05:05.258Z,82.5
2017-06-22T14:06:07.688Z,82.1
2017-06-22T14:07:10.303Z,82.1
2017-06-22T14:09:28.284Z,82.4
2017-06-22T14:10:30.694Z,82.2
2017-06-22T14:11:33.110Z,82.4
2017-06-22T14:12:35.628Z,82.1
2017-06-22T14:13:38.098Z,82.0
2017-06-22T14:14:40.589Z,82.4
2017-06-22T14:15:43.089Z,82.2
2017-06-22T14:16:45.598Z,82.3
2017-06-22T14:17:48.109Z,82.2
2017-06-22T14:18:50.617Z,82.2
2017-06-22T14:19:53.117Z,82.4
2017-06-22T14:20:55.530Z,82.4
2017-06-22T14:21:26.787Z,82.5
2017-06-22T14:22:29.358Z,82.3
2017-06-22T14:23:32.131Z,82.2
2017-06-22T14:24:34.636Z,82.5
2017-06-22T14:25:37.048Z,82.1
2017-06-22T14:26:39.471Z,82.2
2017-06-22T14:27:41.931Z,82.4
2017-06-22T14:28:48.253Z,82.2
